sensor_id;sensor_type;location;lat;lon;timestamp;temperature;humidity
18160;DHT22;9205;52.032;4.314;2024-02-21T00:02:24;9.60;99.90
18160;DHT22;9205;52.032;4.314;2024-02-21T00:04:51;9.60;99.90
18160;DHT22;9205;52.032;4.314;2024-02-21T00:07:18;9.70;99.90
18160;DHT22;9205;52.032;4.314;2024-02-21T00:09:46;9.70;99.90
18160;DHT22;9205;52.032;4.314;2024-02-21T00:12:13;9.60;99.90
18160;DHT22;9205;52.032;4.314;2024-02-21T00:14:40;9.50;99.90
18160;DHT22;9205;52.032;4.314;2024-02-21T00:17:07;9.80;99.90
18160;DHT22;9205;52.032;4.314;2024-02-21T00:19:36;9.80;99.90
18160;DHT22;9205;52.032;4.314;2024-02-21T00:22:04;9.80;99.90
18160;DHT22;9205;52.032;4.314;2024-02-21T00:24:31;9.70;99.90
18160;DHT22;9205;52.032;4.314;2024-02-21T00:26:58;9.50;99.90
18160;DHT22;9205;52.032;4.314;2024-02-21T00:29:25;9.80;99.90
18160;DHT22;9205;52.032;4.314;2024-02-21T00:31:53;9.80;99.90
18160;DHT22;9205;52.032;4.314;2024-02-21T00:34:20;9.60;99.90
18160;DHT22;9205;52.032;4.314;2024-02-21T00:36:48;9.60;99.90
18160;DHT22;9205;52.032;4.314;2024-02-21T00:39:16;9.90;99.90
18160;DHT22;9205;52.032;4.314;2024-02-21T00:41:43;9.90;99.90
18160;DHT22;9205;52.032;4.314;2024-02-21T00:44:10;9.90;99.90
18160;DHT22;9205;52.032;4.314;2024-02-21T00:46:37;9.90;99.90
18160;DHT22;9205;52.032;4.314;2024-02-21T00:49:05;9.90;99.90
18160;DHT22;9205;52.032;4.314;2024-02-21T00:51:33;9.50;99.90
18160;DHT22;9205;52.032;4.314;2024-02-21T00:54:02;9.80;99.90
18160;DHT22;9205;52.032;4.314;2024-02-21T00:56:29;9.60;99.90
18160;DHT22;9205;52.032;4.314;2024-02-21T00:58:56;9.70;99.90
18160;DHT22;9205;52.032;4.314;2024-02-21T01:01:24;9.90;99.90
18160;DHT22;9205;52.032;4.314;2024-02-21T01:03:52;9.70;99.90
18160;DHT22;9205;52.032;4.314;2024-02-21T01:06:19;9.60;99.90
18160;DHT22;9205;52.032;4.314;2024-02-21T01:08:47;9.70;99.90
18160;DHT22;9205;52.032;4.314;2024-02-21T01:11:16;9.50;99.90
18160;DHT22;9205;52.032;4.314;2024-02-21T01:13:43;9.50;99.90
18160;DHT22;9205;52.032;4.314;2024-02-21T01:16:11;9.60;99.90
18160;DHT22;9205;52.032;4.314;2024-02-21T01:18:38;9.70;99.90
18160;DHT22;9205;52.032;4.314;2024-02-21T01:21:06;9.60;99.90
18160;DHT22;9205;52.032;4.314;2024-02-21T01:23:34;9.70;99.90
18160;DHT22;9205;52.032;4.314;2024-02-21T01:26:01;9.80;99.90
18160;DHT22;9205;52.032;4.314;2024-02-21T01:28:29;9.50;99.90
18160;DHT22;9205;52.032;4.314;2024-02-21T01:30:57;9.60;99.90
18160;DHT22;9205;52.032;4.314;2024-02-21T01:33:24;9.50;99.90
18160;DHT22;9205;52.032;4.314;2024-02-21T01:35:51;9.90;99.90
18160;DHT22;9205;52.032;4.314;2024-02-21T01:38:19;9.50;99.90
18160;DHT22;9205;52.032;4.314;2024-02-21T01:40:46;9.40;99.90
18160;DHT22;9205;52.032;4.314;2024-02-21T01:43:17;9.70;99.90
18160;DHT22;9205;52.032;4.314;2024-02-21T01:45:49;9.60;99.90
18160;DHT22;9205;52.032;4.314;2024-02-21T01:48:18;9.70;99.90
18160;DHT22;9205;52.032;4.314;2024-02-21T01:50:45;9.50;99.90
18160;DHT22;9205;52.032;4.314;2024-02-21T01:53:14;9.70;99.90
18160;DHT22;9205;52.032;4.314;2024-02-21T01:55:45;9.50;99.90
18160;DHT22;9205;52.032;4.314;2024-02-21T01:58:13;9.70;99.90
18160;DHT22;9205;52.032;4.314;2024-02-21T02:00:42;9.70;99.90
18160;DHT22;9205;52.032;4.314;2024-02-21T02:03:13;9.50;99.90
18160;DHT22;9205;52.032;4.314;2024-02-21T02:05:43;9.50;99.90
18160;DHT22;9205;52.032;4.314;2024-02-21T02:08:11;9.50;99.90
18160;DHT22;9205;52.032;4.314;2024-02-21T02:10:39;9.70;99.90
18160;DHT22;9205;52.032;4.314;2024-02-21T02:13:07;9.60;99.90
18160;DHT22;9205;52.032;4.314;2024-02-21T02:15:39;9.60;99.90
18160;DHT22;9205;52.032;4.314;2024-02-21T02:18:07;9.50;99.90
18160;DHT22;9205;52.032;4.314;2024-02-21T02:20:36;9.70;99.90
18160;DHT22;9205;52.032;4.314;2024-02-21T02:23:07;9.50;99.90
18160;DHT22;9205;52.032;4.314;2024-02-21T02:25:39;9.60;99.90
18160;DHT22;9205;52.032;4.314;2024-02-21T02:28:06;9.60;99.90
18160;DHT22;9205;52.032;4.314;2024-02-21T02:30:34;9.90;99.90
18160;DHT22;9205;52.032;4.314;2024-02-21T02:33:03;9.80;99.90
18160;DHT22;9205;52.032;4.314;2024-02-21T02:35:30;9.50;99.90
18160;DHT22;9205;52.032;4.314;2024-02-21T02:37:58;9.70;99.90
18160;DHT22;9205;52.032;4.314;2024-02-21T02:40:25;9.80;99.90
18160;DHT22;9205;52.032;4.314;2024-02-21T02:42:54;9.40;99.90
18160;DHT22;9205;52.032;4.314;2024-02-21T02:45:22;9.70;99.90
18160;DHT22;9205;52.032;4.314;2024-02-21T02:47:52;9.40;99.90
18160;DHT22;9205;52.032;4.314;2024-02-21T02:50:20;9.50;99.90
18160;DHT22;9205;52.032;4.314;2024-02-21T02:52:47;9.70;99.90
18160;DHT22;9205;52.032;4.314;2024-02-21T02:55:14;9.60;99.90
18160;DHT22;9205;52.032;4.314;2024-02-21T02:57:42;9.40;99.90
18160;DHT22;9205;52.032;4.314;2024-02-21T03:00:12;9.60;99.90
18160;DHT22;9205;52.032;4.314;2024-02-21T03:02:42;9.50;99.90
18160;DHT22;9205;52.032;4.314;2024-02-21T03:05:13;9.40;99.90
18160;DHT22;9205;52.032;4.314;2024-02-21T03:07:41;9.70;99.90
18160;DHT22;9205;52.032;4.314;2024-02-21T03:10:09;9.70;99.90
18160;DHT22;9205;52.032;4.314;2024-02-21T03:12:37;9.40;99.90
18160;DHT22;9205;52.032;4.314;2024-02-21T03:15:05;9.40;99.90
18160;DHT22;9205;52.032;4.314;2024-02-21T03:17:34;9.70;99.90
18160;DHT22;9205;52.032;4.314;2024-02-21T03:20:01;9.40;99.90
18160;DHT22;9205;52.032;4.314;2024-02-21T03:22:30;9.30;99.90
18160;DHT22;9205;52.032;4.314;2024-02-21T03:24:58;9.50;99.90
18160;DHT22;9205;52.032;4.314;2024-02-21T03:27:25;9.60;99.90
18160;DHT22;9205;52.032;4.314;2024-02-21T03:29:52;9.70;99.90
18160;DHT22;9205;52.032;4.314;2024-02-21T03:32:19;9.50;99.90
18160;DHT22;9205;52.032;4.314;2024-02-21T03:34:48;9.70;99.90
18160;DHT22;9205;52.032;4.314;2024-02-21T03:37:15;9.40;99.90
18160;DHT22;9205;52.032;4.314;2024-02-21T03:39:42;9.50;99.90
18160;DHT22;9205;52.032;4.314;2024-02-21T03:42:10;9.50;99.90
18160;DHT22;9205;52.032;4.314;2024-02-21T03:44:37;9.40;99.90
18160;DHT22;9205;52.032;4.314;2024-02-21T03:47:04;9.50;99.90
18160;DHT22;9205;52.032;4.314;2024-02-21T03:49:31;9.60;99.90
18160;DHT22;9205;52.032;4.314;2024-02-21T03:52:00;9.40;99.90
18160;DHT22;9205;52.032;4.314;2024-02-21T03:54:27;9.70;99.90
18160;DHT22;9205;52.032;4.314;2024-02-21T03:56:54;9.70;99.90
18160;DHT22;9205;52.032;4.314;2024-02-21T03:59:22;9.40;99.90
18160;DHT22;9205;52.032;4.314;2024-02-21T04:01:51;9.60;99.90
18160;DHT22;9205;52.032;4.314;2024-02-21T04:04:19;9.80;99.90
18160;DHT22;9205;52.032;4.314;2024-02-21T04:06:46;9.80;99.90
18160;DHT22;9205;52.032;4.314;2024-02-21T04:09:15;9.60;99.90
18160;DHT22;9205;52.032;4.314;2024-02-21T04:11:43;9.60;99.90
18160;DHT22;9205;52.032;4.314;2024-02-21T04:14:10;9.80;99.90
18160;DHT22;9205;52.032;4.314;2024-02-21T04:16:38;9.50;99.90
18160;DHT22;9205;52.032;4.314;2024-02-21T04:19:05;9.70;99.90
18160;DHT22;9205;52.032;4.314;2024-02-21T04:21:32;9.70;99.90
18160;DHT22;9205;52.032;4.314;2024-02-21T04:24:00;9.40;99.90
18160;DHT22;9205;52.032;4.314;2024-02-21T04:26:28;9.70;99.90
18160;DHT22;9205;52.032;4.314;2024-02-21T04:28:56;9.80;99.90
18160;DHT22;9205;52.032;4.314;2024-02-21T04:31:23;9.80;99.90
18160;DHT22;9205;52.032;4.314;2024-02-21T04:33:50;9.70;99.90
18160;DHT22;9205;52.032;4.314;2024-02-21T04:36:17;9.70;99.90
18160;DHT22;9205;52.032;4.314;2024-02-21T04:38:45;9.50;99.90
18160;DHT22;9205;52.032;4.314;2024-02-21T04:41:12;9.70;99.90
18160;DHT22;9205;52.032;4.314;2024-02-21T04:43:41;9.50;99.90
18160;DHT22;9205;52.032;4.314;2024-02-21T04:46:08;9.40;99.90
18160;DHT22;9205;52.032;4.314;2024-02-21T04:48:35;9.50;99.90
18160;DHT22;9205;52.032;4.314;2024-02-21T04:51:03;9.40;99.90
18160;DHT22;9205;52.032;4.314;2024-02-21T04:53:31;9.70;99.90
18160;DHT22;9205;52.032;4.314;2024-02-21T04:55:58;9.70;99.90
18160;DHT22;9205;52.032;4.314;2024-02-21T04:58:26;9.70;99.90
18160;DHT22;9205;52.032;4.314;2024-02-21T05:00:54;9.40;99.90
18160;DHT22;9205;52.032;4.314;2024-02-21T05:03:22;9.50;99.90
18160;DHT22;9205;52.032;4.314;2024-02-21T05:05:49;9.60;99.90
18160;DHT22;9205;52.032;4.314;2024-02-21T05:08:16;9.60;99.90
18160;DHT22;9205;52.032;4.314;2024-02-21T05:10:43;9.70;99.90
18160;DHT22;9205;52.032;4.314;2024-02-21T05:13:11;9.60;99.90
18160;DHT22;9205;52.032;4.314;2024-02-21T05:15:38;9.30;99.90
18160;DHT22;9205;52.032;4.314;2024-02-21T05:18:07;9.60;99.90
18160;DHT22;9205;52.032;4.314;2024-02-21T05:20:34;9.60;99.90
18160;DHT22;9205;52.032;4.314;2024-02-21T05:23:01;9.60;99.90
18160;DHT22;9205;52.032;4.314;2024-02-21T05:25:28;9.30;99.90
18160;DHT22;9205;52.032;4.314;2024-02-21T05:27:57;9.50;99.90
18160;DHT22;9205;52.032;4.314;2024-02-21T05:30:27;9.50;99.90
18160;DHT22;9205;52.032;4.314;2024-02-21T05:32:55;9.30;99.90
18160;DHT22;9205;52.032;4.314;2024-02-21T05:35:26;9.30;99.90
18160;DHT22;9205;52.032;4.314;2024-02-21T05:37:54;9.20;99.90
18160;DHT22;9205;52.032;4.314;2024-02-21T05:40:21;9.30;99.90
18160;DHT22;9205;52.032;4.314;2024-02-21T05:42:48;9.40;99.90
18160;DHT22;9205;52.032;4.314;2024-02-21T05:45:16;9.40;99.90
18160;DHT22;9205;52.032;4.314;2024-02-21T05:47:44;9.60;99.90
18160;DHT22;9205;52.032;4.314;2024-02-21T05:50:11;9.20;99.90
18160;DHT22;9205;52.032;4.314;2024-02-21T05:52:39;9.40;99.90
18160;DHT22;9205;52.032;4.314;2024-02-21T05:55:07;9.30;99.90
18160;DHT22;9205;52.032;4.314;2024-02-21T05:57:35;9.50;99.90
18160;DHT22;9205;52.032;4.314;2024-02-21T06:00:04;9.50;99.90
18160;DHT22;9205;52.032;4.314;2024-02-21T06:02:38;9.40;99.90
18160;DHT22;9205;52.032;4.314;2024-02-21T06:05:06;9.50;99.90
18160;DHT22;9205;52.032;4.314;2024-02-21T06:07:34;9.40;99.90
18160;DHT22;9205;52.032;4.314;2024-02-21T06:10:04;9.50;99.90
18160;DHT22;9205;52.032;4.314;2024-02-21T06:12:32;9.30;99.90
18160;DHT22;9205;52.032;4.314;2024-02-21T06:14:59;9.50;99.90
18160;DHT22;9205;52.032;4.314;2024-02-21T06:17:26;9.50;99.90
18160;DHT22;9205;52.032;4.314;2024-02-21T06:19:53;9.50;99.90
18160;DHT22;9205;52.032;4.314;2024-02-21T06:22:20;9.20;99.90
18160;DHT22;9205;52.032;4.314;2024-02-21T06:24:47;9.30;99.90
18160;DHT22;9205;52.032;4.314;2024-02-21T06:27:16;9.20;99.90
18160;DHT22;9205;52.032;4.314;2024-02-21T06:29:43;9.50;99.90
18160;DHT22;9205;52.032;4.314;2024-02-21T06:32:10;9.10;99.90
18160;DHT22;9205;52.032;4.314;2024-02-21T06:34:38;9.20;99.90
18160;DHT22;9205;52.032;4.314;2024-02-21T06:37:05;9.40;99.90
18160;DHT22;9205;52.032;4.314;2024-02-21T06:39:32;9.20;99.90
18160;DHT22;9205;52.032;4.314;2024-02-21T06:41:59;9.30;99.90
18160;DHT22;9205;52.032;4.314;2024-02-21T06:44:28;9.30;99.90
18160;DHT22;9205;52.032;4.314;2024-02-21T06:46:55;9.40;99.90
18160;DHT22;9205;52.032;4.314;2024-02-21T06:49:22;9.40;99.90
18160;DHT22;9205;52.032;4.314;2024-02-21T06:51:49;9.20;99.90
18160;DHT22;9205;52.032;4.314;2024-02-21T06:54:16;9.40;99.90
18160;DHT22;9205;52.032;4.314;2024-02-21T06:56:43;9.10;99.90
18160;DHT22;9205;52.032;4.314;2024-02-21T06:59:10;9.10;99.90
18160;DHT22;9205;52.032;4.314;2024-02-21T07:01:45;9.20;99.90
18160;DHT22;9205;52.032;4.314;2024-02-21T07:04:13;9.10;99.90
18160;DHT22;9205;52.032;4.314;2024-02-21T07:06:41;9.10;99.90
18160;DHT22;9205;52.032;4.314;2024-02-21T07:09:08;9.10;99.90
18160;DHT22;9205;52.032;4.314;2024-02-21T07:11:35;9.00;99.90
18160;DHT22;9205;52.032;4.314;2024-02-21T07:14:02;9.30;99.90
18160;DHT22;9205;52.032;4.314;2024-02-21T07:16:29;9.30;99.90
18160;DHT22;9205;52.032;4.314;2024-02-21T07:19:02;9.10;99.90
18160;DHT22;9205;52.032;4.314;2024-02-21T07:21:32;9.20;99.90
18160;DHT22;9205;52.032;4.314;2024-02-21T07:23:59;9.30;99.90
18160;DHT22;9205;52.032;4.314;2024-02-21T07:26:26;9.00;99.90
18160;DHT22;9205;52.032;4.314;2024-02-21T07:28:53;9.00;99.90
18160;DHT22;9205;52.032;4.314;2024-02-21T07:31:20;9.30;99.90
18160;DHT22;9205;52.032;4.314;2024-02-21T07:33:48;9.10;99.90
18160;DHT22;9205;52.032;4.314;2024-02-21T07:36:27;9.30;99.90
18160;DHT22;9205;52.032;4.314;2024-02-21T07:38:56;9.30;99.90
18160;DHT22;9205;52.032;4.314;2024-02-21T07:41:23;9.00;99.90
18160;DHT22;9205;52.032;4.314;2024-02-21T07:43:50;8.90;99.90
18160;DHT22;9205;52.032;4.314;2024-02-21T07:46:17;9.10;99.90
18160;DHT22;9205;52.032;4.314;2024-02-21T07:48:45;8.90;99.90
18160;DHT22;9205;52.032;4.314;2024-02-21T07:51:12;9.30;99.90
18160;DHT22;9205;52.032;4.314;2024-02-21T07:53:41;9.20;99.90
18160;DHT22;9205;52.032;4.314;2024-02-21T07:56:10;8.90;99.90
18160;DHT22;9205;52.032;4.314;2024-02-21T07:58:37;9.20;99.90
18160;DHT22;9205;52.032;4.314;2024-02-21T08:01:05;9.20;99.90
18160;DHT22;9205;52.032;4.314;2024-02-21T08:03:32;9.20;99.90
18160;DHT22;9205;52.032;4.314;2024-02-21T08:05:59;9.20;99.90
18160;DHT22;9205;52.032;4.314;2024-02-21T08:08:26;9.30;99.90
18160;DHT22;9205;52.032;4.314;2024-02-21T08:10:55;9.10;99.90
18160;DHT22;9205;52.032;4.314;2024-02-21T08:13:22;9.40;99.90
18160;DHT22;9205;52.032;4.314;2024-02-21T08:15:49;9.30;99.90
18160;DHT22;9205;52.032;4.314;2024-02-21T08:18:16;8.90;99.90
18160;DHT22;9205;52.032;4.314;2024-02-21T08:20:43;9.00;99.90
18160;DHT22;9205;52.032;4.314;2024-02-21T08:23:10;9.30;99.90
18160;DHT22;9205;52.032;4.314;2024-02-21T08:25:38;9.00;99.90
18160;DHT22;9205;52.032;4.314;2024-02-21T08:28:06;9.30;99.90
18160;DHT22;9205;52.032;4.314;2024-02-21T08:30:34;9.30;99.90
18160;DHT22;9205;52.032;4.314;2024-02-21T08:33:01;9.10;99.90
18160;DHT22;9205;52.032;4.314;2024-02-21T08:35:29;9.10;99.90
18160;DHT22;9205;52.032;4.314;2024-02-21T08:37:56;9.40;99.90
18160;DHT22;9205;52.032;4.314;2024-02-21T08:40:23;9.30;99.90
18160;DHT22;9205;52.032;4.314;2024-02-21T08:42:51;9.30;99.90
18160;DHT22;9205;52.032;4.314;2024-02-21T08:45:20;9.30;99.90
18160;DHT22;9205;52.032;4.314;2024-02-21T08:47:47;9.10;99.90
18160;DHT22;9205;52.032;4.314;2024-02-21T08:50:15;9.10;99.90
18160;DHT22;9205;52.032;4.314;2024-02-21T08:52:42;9.00;99.90
18160;DHT22;9205;52.032;4.314;2024-02-21T08:55:09;9.10;99.90
18160;DHT22;9205;52.032;4.314;2024-02-21T08:57:37;9.30;99.90
18160;DHT22;9205;52.032;4.314;2024-02-21T09:00:05;9.10;99.90
18160;DHT22;9205;52.032;4.314;2024-02-21T09:02:39;9.00;99.90
18160;DHT22;9205;52.032;4.314;2024-02-21T09:05:08;9.20;99.90
18160;DHT22;9205;52.032;4.314;2024-02-21T09:07:35;9.30;99.90
18160;DHT22;9205;52.032;4.314;2024-02-21T09:10:03;9.30;99.90
18160;DHT22;9205;52.032;4.314;2024-02-21T09:12:31;9.20;99.90
18160;DHT22;9205;52.032;4.314;2024-02-21T09:14:58;9.10;99.90
18160;DHT22;9205;52.032;4.314;2024-02-21T09:17:25;9.40;99.90
18160;DHT22;9205;52.032;4.314;2024-02-21T09:19:56;9.10;99.90
18160;DHT22;9205;52.032;4.314;2024-02-21T09:22:25;9.40;99.90
18160;DHT22;9205;52.032;4.314;2024-02-21T09:24:52;9.40;99.90
18160;DHT22;9205;52.032;4.314;2024-02-21T09:27:19;9.50;99.90
18160;DHT22;9205;52.032;4.314;2024-02-21T09:29:48;9.30;99.90
18160;DHT22;9205;52.032;4.314;2024-02-21T09:32:15;9.50;99.90
18160;DHT22;9205;52.032;4.314;2024-02-21T09:34:42;9.50;99.90
18160;DHT22;9205;52.032;4.314;2024-02-21T09:37:10;9.40;99.90
18160;DHT22;9205;52.032;4.314;2024-02-21T09:39:38;9.40;99.90
18160;DHT22;9205;52.032;4.314;2024-02-21T09:42:06;9.60;99.90
18160;DHT22;9205;52.032;4.314;2024-02-21T09:44:37;9.40;99.90
18160;DHT22;9205;52.032;4.314;2024-02-21T09:47:09;9.60;99.90
18160;DHT22;9205;52.032;4.314;2024-02-21T09:49:40;9.30;99.90
18160;DHT22;9205;52.032;4.314;2024-02-21T09:52:12;9.60;99.90
18160;DHT22;9205;52.032;4.314;2024-02-21T09:54:42;9.40;99.90
18160;DHT22;9205;52.032;4.314;2024-02-21T09:57:10;9.70;99.90
18160;DHT22;9205;52.032;4.314;2024-02-21T09:59:39;9.60;99.90
18160;DHT22;9205;52.032;4.314;2024-02-21T10:02:07;9.40;99.90
18160;DHT22;9205;52.032;4.314;2024-02-21T10:04:34;9.30;99.90
18160;DHT22;9205;52.032;4.314;2024-02-21T10:07:02;9.40;99.90
18160;DHT22;9205;52.032;4.314;2024-02-21T10:09:31;9.60;99.90
18160;DHT22;9205;52.032;4.314;2024-02-21T10:12:08;9.60;99.90
18160;DHT22;9205;52.032;4.314;2024-02-21T10:14:36;9.50;99.90
18160;DHT22;9205;52.032;4.314;2024-02-21T10:17:04;9.50;99.90
18160;DHT22;9205;52.032;4.314;2024-02-21T10:19:35;9.40;99.90
18160;DHT22;9205;52.032;4.314;2024-02-21T10:22:03;9.50;99.90
18160;DHT22;9205;52.032;4.314;2024-02-21T10:24:34;9.50;99.90
18160;DHT22;9205;52.032;4.314;2024-02-21T10:27:05;9.60;99.90
18160;DHT22;9205;52.032;4.314;2024-02-21T10:29:34;9.50;99.90
18160;DHT22;9205;52.032;4.314;2024-02-21T10:32:08;9.40;99.90
18160;DHT22;9205;52.032;4.314;2024-02-21T10:34:37;9.50;99.90
18160;DHT22;9205;52.032;4.314;2024-02-21T10:37:06;9.60;99.90
18160;DHT22;9205;52.032;4.314;2024-02-21T10:39:37;9.50;99.90
18160;DHT22;9205;52.032;4.314;2024-02-21T10:42:05;9.40;99.90
18160;DHT22;9205;52.032;4.314;2024-02-21T10:44:36;9.70;99.90
18160;DHT22;9205;52.032;4.314;2024-02-21T10:47:08;9.50;99.90
18160;DHT22;9205;52.032;4.314;2024-02-21T10:49:38;9.70;99.90
18160;DHT22;9205;52.032;4.314;2024-02-21T10:52:14;9.50;99.90
18160;DHT22;9205;52.032;4.314;2024-02-21T10:54:47;9.40;99.90
18160;DHT22;9205;52.032;4.314;2024-02-21T10:57:20;9.70;99.90
18160;DHT22;9205;52.032;4.314;2024-02-21T10:59:49;9.50;99.90
18160;DHT22;9205;52.032;4.314;2024-02-21T11:02:17;9.60;99.90
18160;DHT22;9205;52.032;4.314;2024-02-21T11:04:45;9.70;99.90
18160;DHT22;9205;52.032;4.314;2024-02-21T11:07:13;9.80;99.90
18160;DHT22;9205;52.032;4.314;2024-02-21T11:09:52;9.80;99.90
18160;DHT22;9205;52.032;4.314;2024-02-21T11:12:21;9.90;99.90
18160;DHT22;9205;52.032;4.314;2024-02-21T11:14:49;9.90;99.90
18160;DHT22;9205;52.032;4.314;2024-02-21T11:17:16;9.90;99.90
18160;DHT22;9205;52.032;4.314;2024-02-21T11:19:44;9.80;99.90
18160;DHT22;9205;52.032;4.314;2024-02-21T11:22:15;9.80;99.90
18160;DHT22;9205;52.032;4.314;2024-02-21T11:24:43;9.90;99.90
18160;DHT22;9205;52.032;4.314;2024-02-21T11:27:14;10.00;99.90
18160;DHT22;9205;52.032;4.314;2024-02-21T11:29:43;9.90;99.90
18160;DHT22;9205;52.032;4.314;2024-02-21T11:32:10;9.80;92.50
18160;DHT22;9205;52.032;4.314;2024-02-21T11:34:38;9.90;1.00
18160;DHT22;9205;52.032;4.314;2024-02-21T11:37:13;10.00;1.00
18160;DHT22;9205;52.032;4.314;2024-02-21T11:39:42;10.10;1.00
18160;DHT22;9205;52.032;4.314;2024-02-21T11:42:10;10.00;1.00
18160;DHT22;9205;52.032;4.314;2024-02-21T11:44:39;10.30;1.00
18160;DHT22;9205;52.032;4.314;2024-02-21T11:47:08;10.20;1.00
18160;DHT22;9205;52.032;4.314;2024-02-21T11:49:37;10.20;1.00
18160;DHT22;9205;52.032;4.314;2024-02-21T11:52:05;10.10;1.00
18160;DHT22;9205;52.032;4.314;2024-02-21T11:54:34;10.10;1.00
18160;DHT22;9205;52.032;4.314;2024-02-21T11:57:01;10.20;1.00
18160;DHT22;9205;52.032;4.314;2024-02-21T11:59:30;10.20;1.00
18160;DHT22;9205;52.032;4.314;2024-02-21T12:02:00;10.10;1.00
18160;DHT22;9205;52.032;4.314;2024-02-21T12:04:28;10.20;1.00
18160;DHT22;9205;52.032;4.314;2024-02-21T12:06:57;10.20;99.90
18160;DHT22;9205;52.032;4.314;2024-02-21T12:09:26;10.10;99.90
18160;DHT22;9205;52.032;4.314;2024-02-21T12:12:00;10.20;99.90
18160;DHT22;9205;52.032;4.314;2024-02-21T12:14:29;10.10;99.90
18160;DHT22;9205;52.032;4.314;2024-02-21T12:16:59;10.10;99.90
18160;DHT22;9205;52.032;4.314;2024-02-21T12:19:29;10.10;99.90
18160;DHT22;9205;52.032;4.314;2024-02-21T12:21:58;10.10;99.90
18160;DHT22;9205;52.032;4.314;2024-02-21T12:24:26;10.10;99.90
18160;DHT22;9205;52.032;4.314;2024-02-21T12:26:55;10.20;99.90
18160;DHT22;9205;52.032;4.314;2024-02-21T12:29:24;10.20;99.90
18160;DHT22;9205;52.032;4.314;2024-02-21T12:31:52;10.00;99.90
18160;DHT22;9205;52.032;4.314;2024-02-21T12:34:22;10.00;99.90
18160;DHT22;9205;52.032;4.314;2024-02-21T12:36:52;10.00;99.90
18160;DHT22;9205;52.032;4.314;2024-02-21T12:39:19;10.00;1.00
18160;DHT22;9205;52.032;4.314;2024-02-21T12:41:46;10.00;1.00
18160;DHT22;9205;52.032;4.314;2024-02-21T12:44:14;9.90;1.00
18160;DHT22;9205;52.032;4.314;2024-02-21T12:46:42;9.80;1.00
18160;DHT22;9205;52.032;4.314;2024-02-21T12:49:10;9.80;1.00
18160;DHT22;9205;52.032;4.314;2024-02-21T12:51:39;9.80;1.00
18160;DHT22;9205;52.032;4.314;2024-02-21T12:54:07;9.90;1.00
18160;DHT22;9205;52.032;4.314;2024-02-21T12:56:36;9.80;1.00
18160;DHT22;9205;52.032;4.314;2024-02-21T12:59:05;9.80;1.00
18160;DHT22;9205;52.032;4.314;2024-02-21T13:01:34;9.80;1.00
18160;DHT22;9205;52.032;4.314;2024-02-21T13:04:01;9.90;1.00
18160;DHT22;9205;52.032;4.314;2024-02-21T13:06:29;9.80;1.00
18160;DHT22;9205;52.032;4.314;2024-02-21T13:08:57;9.90;1.00
18160;DHT22;9205;52.032;4.314;2024-02-21T13:11:25;9.70;1.00
18160;DHT22;9205;52.032;4.314;2024-02-21T13:13:56;9.80;1.00
18160;DHT22;9205;52.032;4.314;2024-02-21T13:16:23;9.80;1.00
18160;DHT22;9205;52.032;4.314;2024-02-21T13:18:52;10.00;1.00
18160;DHT22;9205;52.032;4.314;2024-02-21T13:21:19;9.80;1.00
18160;DHT22;9205;52.032;4.314;2024-02-21T13:23:46;9.90;1.00
18160;DHT22;9205;52.032;4.314;2024-02-21T13:26:15;9.80;1.00
18160;DHT22;9205;52.032;4.314;2024-02-21T13:28:42;9.70;1.00
18160;DHT22;9205;52.032;4.314;2024-02-21T13:31:10;9.90;1.00
18160;DHT22;9205;52.032;4.314;2024-02-21T13:33:37;9.80;1.00
18160;DHT22;9205;52.032;4.314;2024-02-21T13:36:05;9.80;1.00
18160;DHT22;9205;52.032;4.314;2024-02-21T13:38:33;9.90;1.00
18160;DHT22;9205;52.032;4.314;2024-02-21T13:41:00;9.70;1.00
18160;DHT22;9205;52.032;4.314;2024-02-21T13:43:28;9.90;1.00
18160;DHT22;9205;52.032;4.314;2024-02-21T13:45:57;9.70;1.00
18160;DHT22;9205;52.032;4.314;2024-02-21T13:48:25;9.70;99.90
18160;DHT22;9205;52.032;4.314;2024-02-21T13:50:54;9.70;99.90
18160;DHT22;9205;52.032;4.314;2024-02-21T13:53:22;9.70;99.90
18160;DHT22;9205;52.032;4.314;2024-02-21T13:55:49;9.60;99.90
18160;DHT22;9205;52.032;4.314;2024-02-21T13:58:17;9.80;99.90
18160;DHT22;9205;52.032;4.314;2024-02-21T14:00:45;9.70;99.90
18160;DHT22;9205;52.032;4.314;2024-02-21T14:03:12;9.50;99.90
18160;DHT22;9205;52.032;4.314;2024-02-21T14:05:40;9.60;99.90
18160;DHT22;9205;52.032;4.314;2024-02-21T14:08:07;9.40;99.90
18160;DHT22;9205;52.032;4.314;2024-02-21T14:10:34;9.30;99.90
18160;DHT22;9205;52.032;4.314;2024-02-21T14:13:03;9.40;99.90
18160;DHT22;9205;52.032;4.314;2024-02-21T14:15:30;9.30;99.90
18160;DHT22;9205;52.032;4.314;2024-02-21T14:17:58;9.30;99.90
18160;DHT22;9205;52.032;4.314;2024-02-21T14:20:26;9.10;99.90
18160;DHT22;9205;52.032;4.314;2024-02-21T14:22:53;9.10;99.90
18160;DHT22;9205;52.032;4.314;2024-02-21T14:25:20;9.00;99.90
18160;DHT22;9205;52.032;4.314;2024-02-21T14:27:47;9.30;99.90
18160;DHT22;9205;52.032;4.314;2024-02-21T14:30:14;9.30;99.90
18160;DHT22;9205;52.032;4.314;2024-02-21T14:32:44;9.10;99.90
18160;DHT22;9205;52.032;4.314;2024-02-21T14:35:12;9.00;99.90
18160;DHT22;9205;52.032;4.314;2024-02-21T14:37:41;9.00;99.90
18160;DHT22;9205;52.032;4.314;2024-02-21T14:40:09;9.00;99.90
18160;DHT22;9205;52.032;4.314;2024-02-21T14:42:37;9.00;99.90
18160;DHT22;9205;52.032;4.314;2024-02-21T14:45:05;8.90;99.90
18160;DHT22;9205;52.032;4.314;2024-02-21T14:47:33;9.20;99.90
18160;DHT22;9205;52.032;4.314;2024-02-21T14:50:02;9.20;99.90
18160;DHT22;9205;52.032;4.314;2024-02-21T14:52:31;9.10;99.90
18160;DHT22;9205;52.032;4.314;2024-02-21T14:55:00;8.70;99.90
18160;DHT22;9205;52.032;4.314;2024-02-21T14:57:29;9.10;99.90
18160;DHT22;9205;52.032;4.314;2024-02-21T14:59:56;8.80;99.90
18160;DHT22;9205;52.032;4.314;2024-02-21T15:02:24;8.80;99.90
18160;DHT22;9205;52.032;4.314;2024-02-21T15:04:53;8.70;99.90
18160;DHT22;9205;52.032;4.314;2024-02-21T15:07:20;8.80;99.90
18160;DHT22;9205;52.032;4.314;2024-02-21T15:09:51;9.10;99.90
18160;DHT22;9205;52.032;4.314;2024-02-21T15:12:18;9.20;99.90
18160;DHT22;9205;52.032;4.314;2024-02-21T15:14:45;9.00;99.90
18160;DHT22;9205;52.032;4.314;2024-02-21T15:17:12;9.00;99.90
18160;DHT22;9205;52.032;4.314;2024-02-21T15:19:40;8.80;99.90
18160;DHT22;9205;52.032;4.314;2024-02-21T15:22:09;8.70;99.90
18160;DHT22;9205;52.032;4.314;2024-02-21T15:24:38;9.20;99.90
18160;DHT22;9205;52.032;4.314;2024-02-21T15:27:07;9.30;99.90
18160;DHT22;9205;52.032;4.314;2024-02-21T15:29:35;8.70;99.90
18160;DHT22;9205;52.032;4.314;2024-02-21T15:32:03;8.80;99.90
18160;DHT22;9205;52.032;4.314;2024-02-21T15:34:30;9.10;99.90
18160;DHT22;9205;52.032;4.314;2024-02-21T15:36:58;9.20;99.90
18160;DHT22;9205;52.032;4.314;2024-02-21T15:39:25;9.10;99.90
18160;DHT22;9205;52.032;4.314;2024-02-21T15:41:53;9.30;99.90
18160;DHT22;9205;52.032;4.314;2024-02-21T15:44:22;9.10;99.90
18160;DHT22;9205;52.032;4.314;2024-02-21T15:46:49;9.30;99.90
18160;DHT22;9205;52.032;4.314;2024-02-21T15:49:17;9.40;99.90
18160;DHT22;9205;52.032;4.314;2024-02-21T15:51:44;9.30;99.90
18160;DHT22;9205;52.032;4.314;2024-02-21T15:54:12;9.40;99.90
18160;DHT22;9205;52.032;4.314;2024-02-21T15:56:42;9.30;99.90
18160;DHT22;9205;52.032;4.314;2024-02-21T15:59:10;9.30;99.90
18160;DHT22;9205;52.032;4.314;2024-02-21T16:01:39;9.40;99.90
18160;DHT22;9205;52.032;4.314;2024-02-21T16:04:09;9.40;99.90
18160;DHT22;9205;52.032;4.314;2024-02-21T16:06:40;8.80;99.90
18160;DHT22;9205;52.032;4.314;2024-02-21T16:09:08;8.80;99.90